Impacts TAF Board
For situational awareness. Not to be used for flight planning purposes.
IDs:

KHDC - Hammond/Northshore R, LA, US

Issued at 1138 UTC 17 Dec 2018
Updated at 1319 UTC 17 Dec 2018
Potential Impact None Slight Moderate High
Time1315Z 17/14Z 17/15Z 17/16Z 17/17Z 17/18Z 17/19Z 17/20Z 17/21Z 17/22Z 17/23Z 18/00Z 18/01Z 18/02Z>>
Type OBS PRVL PRVL PRVL PRVL PRVL PRVL PRVL PRVL PRVL PRVL PRVL PRVL PRVL
VIS 7 >6 >6 >6 >6 >6 >6 >6 >6 >6 >6 >6 >6 >6
CIG -- 250 250 250 250 250 250 250 250 250 250 250 250 250
Cover CLR BKN BKN BKN BKN BKN BKN BKN BKN BKN BKN BKN BKN BKN
FltCat VFR VFR VFR VFR VFR VFR VFR VFR VFR VFR VFR VFR VFR VFR
WX -- -- -- -- -- -- -- -- -- -- -- -- -- --
WDir VRB VRB VRB VRB VRB VRB VRB VRB VRB VRB VRB VRB VRB VRB
WSpd 0 4 4 4 4 4 4 4 4 4 4 4 4 4
WGst -- -- -- -- -- -- -- -- -- -- -- -- -- --
Raw TAF
KHDC 171138Z 1712/1812 VRB04KT P6SM BKN250

Raw METAR
KHDC 171315Z AUTO 00000KT 7SM CLR 06/06 A3029 RMK AO2
KHDC 171255Z AUTO 00000KT 10SM CLR 06/06 A3028 RMK AO2
KHDC 171235Z AUTO 00000KT 10SM CLR 06/06 A3028 RMK AO2
KHDC 171215Z AUTO 00000KT 10SM CLR 06/06 A3028 RMK AO2
KHDC 171155Z AUTO 00000KT 10SM CLR 06/06 A3026 RMK AO2
KHDC 171135Z AUTO 00000KT 10SM CLR 06/06 A3026 RMK AO2
KHDC 171115Z AUTO 00000KT 10SM CLR 06/06 A3025 RMK AO2
KHDC 171055Z AUTO 00000KT 10SM CLR 06/06 A3024 RMK AO2
KHDC 171035Z AUTO 00000KT 10SM CLR 06/06 A3024 RMK AO2

METAR Board
Radar Display
Forecast Discussion
For situational awareness. Not to be used for flight planning purposes.